Time;durP1;ratioP1;P1;durP2;ratioP2;P2;SDS_P1;SDS_P2;PMS_P1;PMS_P2;Temp;Humidity;BMP_temperature;BMP_pressure;BME280_temperature;BME280_humidity;BME280_pressure;Samples;Min_cycle;Max_cycle;Signal;HPM_P1;HPM_P2
2021/03/07 00:00:56;;;;;;;19.98;14.60;;;-1.50;99.90;;;;;;5001090;28;20050;-66
2021/03/07 00:03:23;;;;;;;22.60;14.10;;;-1.50;99.90;;;;;;4991648;28;20125;-66
2021/03/07 00:05:49;;;;;;;23.55;15.82;;;-1.50;99.90;;;;;;4992823;28;20058;-66
2021/03/07 00:08:16;;;;;;;25.45;16.42;;;-1.60;99.90;;;;;;4992220;28;20084;-66
2021/03/07 00:10:43;;;;;;;22.08;15.60;;;-1.60;99.90;;;;;;4993114;28;20066;-66
2021/03/07 00:13:11;;;;;;;21.30;14.85;;;-1.60;99.90;;;;;;4991939;28;20047;-66
2021/03/07 00:15:38;;;;;;;21.30;14.43;;;-1.60;99.90;;;;;;4993115;28;20161;-66
2021/03/07 00:18:04;;;;;;;28.40;18.40;;;-1.60;99.90;;;;;;4992073;28;20056;-66
2021/03/07 00:20:32;;;;;;;28.88;18.60;;;-1.60;99.90;;;;;;4992278;28;20051;-66
2021/03/07 00:22:58;;;;;;;20.98;15.82;;;-1.70;99.90;;;;;;4992075;28;20137;-66
2021/03/07 00:25:25;;;;;;;18.40;13.45;;;-1.70;99.90;;;;;;4998354;28;20050;-66
2021/03/07 00:27:51;;;;;;;18.75;13.15;;;-1.70;99.90;;;;;;4999484;28;20425;-66
2021/03/07 00:30:18;;;;;;;17.65;12.68;;;-1.70;99.90;;;;;;4994129;28;20473;-66
2021/03/07 00:32:46;;;;;;;16.77;12.57;;;-1.70;99.90;;;;;;4995687;28;20053;-66
2021/03/07 00:35:14;;;;;;;16.10;11.93;;;-1.70;99.90;;;;;;4999382;28;20061;-66
2021/03/07 00:37:40;;;;;;;15.55;12.25;;;-1.70;99.90;;;;;;4998920;28;20102;-66
2021/03/07 00:40:09;;;;;;;14.57;11.80;;;-1.70;99.90;;;;;;5000216;28;20412;-66
2021/03/07 00:42:37;;;;;;;15.82;12.07;;;-1.70;99.90;;;;;;4999989;28;20064;-66
2021/03/07 00:45:10;;;;;;;15.48;11.32;;;-1.70;99.90;;;;;;4997682;28;20058;-66
2021/03/07 00:47:38;;;;;;;15.55;11.65;;;-1.70;99.90;;;;;;5000201;28;20132;-66
2021/03/07 00:50:16;;;;;;;18.13;12.23;;;-1.70;99.90;;;;;;4994454;28;20133;-66
2021/03/07 00:52:43;;;;;;;14.85;11.82;;;-1.70;99.90;;;;;;4996854;28;20050;-66
2021/03/07 00:55:10;;;;;;;14.57;11.68;;;-1.80;99.90;;;;;;5000377;28;20416;-66
2021/03/07 00:57:37;;;;;;;14.80;11.27;;;-1.80;99.90;;;;;;4995805;28;20050;-66
2021/03/07 01:00:11;;;;;;;17.65;12.70;;;-1.80;99.90;;;;;;5004323;28;20050;-66
2021/03/07 01:02:38;;;;;;;17.10;12.43;;;-1.80;99.90;;;;;;5005798;28;20104;-65
2021/03/07 01:05:06;;;;;;;14.73;11.63;;;-1.80;99.90;;;;;;4999016;28;20056;-65
2021/03/07 01:07:33;;;;;;;14.68;12.20;;;-1.80;99.90;;;;;;4998381;28;20050;-65
2021/03/07 01:10:02;;;;;;;15.40;12.55;;;-1.90;99.90;;;;;;4998928;28;20050;-65
2021/03/07 01:12:28;;;;;;;16.80;12.00;;;-1.90;99.90;;;;;;5006994;28;20097;-66
2021/03/07 01:14:55;;;;;;;14.63;11.82;;;-1.90;99.90;;;;;;4998534;28;20129;-66
2021/03/07 01:17:21;;;;;;;14.82;11.60;;;-1.80;99.90;;;;;;4998766;28;20050;-66
2021/03/07 01:19:48;;;;;;;13.98;12.18;;;-1.90;99.90;;;;;;4999891;28;20054;-66
2021/03/07 01:22:16;;;;;;;16.45;12.90;;;-1.80;99.90;;;;;;4999807;28;20469;-66
2021/03/07 01:24:43;;;;;;;17.60;12.40;;;-1.80;99.90;;;;;;4997302;28;20134;-65
2021/03/07 01:27:09;;;;;;;14.98;11.75;;;-1.80;99.90;;;;;;4997952;28;20103;-65
2021/03/07 01:29:36;;;;;;;17.90;12.43;;;-1.90;99.90;;;;;;4998203;28;20042;-65
2021/03/07 01:32:02;;;;;;;16.75;13.00;;;-1.90;99.90;;;;;;4998726;28;20057;-65
2021/03/07 01:34:29;;;;;;;15.48;11.52;;;-1.90;99.90;;;;;;4996932;28;20058;-65
2021/03/07 01:36:56;;;;;;;14.27;12.05;;;-1.90;99.90;;;;;;4994175;28;20082;-66
2021/03/07 01:39:23;;;;;;;15.32;11.68;;;-1.90;99.90;;;;;;4994701;28;20185;-65
2021/03/07 01:41:53;;;;;;;15.38;12.00;;;-1.90;99.90;;;;;;4994785;28;20054;-66
2021/03/07 01:44:20;;;;;;;14.57;11.40;;;-2.00;99.90;;;;;;4994342;28;20054;-65
2021/03/07 01:46:46;;;;;;;15.00;11.93;;;-1.90;99.90;;;;;;4993624;28;20054;-65
2021/03/07 01:49:13;;;;;;;19.08;13.50;;;-2.00;99.90;;;;;;4994515;28;20154;-65
2021/03/07 01:51:40;;;;;;;14.45;11.88;;;-2.00;99.90;;;;;;4993097;28;20141;-65
2021/03/07 01:54:07;;;;;;;13.68;11.25;;;-2.00;99.90;;;;;;4986911;28;20137;-66
2021/03/07 01:56:34;;;;;;;13.73;11.00;;;-2.00;99.90;;;;;;4994621;28;20461;-65
2021/03/07 01:59:02;;;;;;;15.50;11.95;;;-2.10;99.90;;;;;;4995009;28;20392;-65
2021/03/07 02:01:28;;;;;;;14.20;11.68;;;-2.00;99.90;;;;;;4995996;28;20133;-66
2021/03/07 02:03:55;;;;;;;13.90;10.95;;;-2.00;99.90;;;;;;4994899;28;20062;-65
2021/03/07 02:06:22;;;;;;;17.10;11.82;;;-2.10;99.90;;;;;;4992756;28;20050;-65
2021/03/07 02:08:49;;;;;;;16.10;11.82;;;-2.10;99.90;;;;;;4995547;28;20132;-65
2021/03/07 02:11:16;;;;;;;18.27;10.70;;;-2.10;99.90;;;;;;4993296;28;20046;-65
2021/03/07 02:13:46;;;;;;;12.07;10.38;;;-2.20;99.90;;;;;;4994614;28;20050;-65
2021/03/07 02:16:15;;;;;;;12.82;10.85;;;-2.20;99.90;;;;;;4994455;28;20736;-65
2021/03/07 02:18:44;;;;;;;14.48;10.98;;;-2.20;99.90;;;;;;4982195;28;20653;-65
2021/03/07 02:21:16;;;;;;;14.50;11.00;;;-2.20;99.90;;;;;;5006517;28;20092;-65
2021/03/07 02:24:07;;;;;;;13.82;10.85;;;-2.30;99.90;;;;;;5005706;28;20106;-65
2021/03/07 02:26:37;;;;;;;13.20;10.75;;;-2.30;99.90;;;;;;4993720;28;20050;-65
2021/03/07 02:29:05;;;;;;;15.23;10.98;;;-2.30;99.90;;;;;;4987690;28;20043;-65
2021/03/07 02:31:34;;;;;;;16.35;10.70;;;-2.40;99.90;;;;;;4981605;28;20509;-67
2021/03/07 02:34:16;;;;;;;13.98;10.50;;;-2.30;99.90;;;;;;4993705;28;20050;-67
2021/03/07 02:36:52;;;;;;;12.50;10.32;;;-2.30;99.90;;;;;;4993467;28;20489;-67
2021/03/07 02:39:23;;;;;;;12.20;10.15;;;-2.30;99.90;;;;;;4993542;28;20050;-67
2021/03/07 02:41:55;;;;;;;15.20;10.80;;;-2.30;99.90;;;;;;4993321;28;20529;-67
2021/03/07 02:44:23;;;;;;;15.75;11.10;;;-2.30;99.90;;;;;;4990881;28;20043;-67
2021/03/07 02:46:51;;;;;;;14.10;10.40;;;-2.30;99.90;;;;;;4993742;28;20049;-67
2021/03/07 02:49:22;;;;;;;14.65;11.02;;;-2.30;99.90;;;;;;4993652;28;20038;-67
2021/03/07 02:51:50;;;;;;;13.07;10.45;;;-2.40;99.90;;;;;;4992497;28;20050;-67
2021/03/07 02:54:19;;;;;;;14.93;11.00;;;-2.40;99.90;;;;;;4994092;28;20050;-67
2021/03/07 02:56:50;;;;;;;13.52;10.32;;;-2.50;99.90;;;;;;5001791;28;20046;-67
2021/03/07 02:59:18;;;;;;;14.82;10.77;;;-2.50;99.90;;;;;;4992324;28;20477;-67
2021/03/07 03:01:45;;;;;;;15.20;12.02;;;-2.60;99.90;;;;;;5000942;28;20053;-67
2021/03/07 03:04:13;;;;;;;12.90;10.75;;;-2.60;99.90;;;;;;4990438;28;20077;-67
2021/03/07 03:06:42;;;;;;;13.95;10.90;;;-2.60;99.90;;;;;;4992460;28;20049;-67
2021/03/07 03:09:12;;;;;;;14.20;10.45;;;-2.60;99.90;;;;;;4991342;28;20061;-72
2021/03/07 03:11:41;;;;;;;14.95;10.50;;;-2.60;99.90;;;;;;4992535;28;20489;-68
2021/03/07 03:14:09;;;;;;;17.08;11.85;;;-2.70;99.90;;;;;;4991515;28;20046;-67
2021/03/07 03:16:36;;;;;;;15.35;11.13;;;-2.70;99.90;;;;;;4993307;28;20662;-67
2021/03/07 03:19:09;;;;;;;14.65;11.02;;;-2.70;99.90;;;;;;4994066;28;20053;-67
2021/03/07 03:21:37;;;;;;;15.63;11.73;;;-2.70;99.90;;;;;;4992242;28;20054;-67
2021/03/07 03:24:06;;;;;;;14.15;10.82;;;-2.70;99.90;;;;;;4994062;28;20464;-67
2021/03/07 03:26:33;;;;;;;16.73;10.75;;;-2.70;99.90;;;;;;4993811;28;20114;-67
2021/03/07 03:29:03;;;;;;;16.85;11.02;;;-2.70;99.90;;;;;;5004610;28;20046;-67
2021/03/07 03:31:30;;;;;;;12.50;10.82;;;-2.70;99.90;;;;;;4981768;28;20054;-67
2021/03/07 03:33:56;;;;;;;14.40;11.15;;;-2.70;99.90;;;;;;4992711;28;20446;-67
2021/03/07 03:36:23;;;;;;;12.98;10.43;;;-2.80;99.90;;;;;;4992723;28;20054;-67
2021/03/07 03:38:54;;;;;;;14.80;11.10;;;-2.80;99.90;;;;;;4991951;28;20042;-67
2021/03/07 03:41:24;;;;;;;14.65;10.88;;;-2.70;99.90;;;;;;4993324;28;20397;-67
2021/03/07 03:43:56;;;;;;;12.85;11.02;;;-2.70;99.90;;;;;;4992556;28;20077;-67
2021/03/07 03:46:25;;;;;;;13.88;10.70;;;-2.70;99.90;;;;;;4992290;28;20078;-67
2021/03/07 03:48:57;;;;;;;21.70;13.63;;;-2.70;99.90;;;;;;4992910;28;20047;-67
2021/03/07 03:51:25;;;;;;;21.65;13.80;;;-2.70;99.90;;;;;;4990778;28;20554;-67
2021/03/07 03:53:55;;;;;;;17.63;13.32;;;-2.70;99.90;;;;;;4993380;28;20279;-67
2021/03/07 03:56:24;;;;;;;17.75;13.18;;;-2.70;99.90;;;;;;4992525;28;20248;-67
2021/03/07 03:58:53;;;;;;;22.38;14.32;;;-2.70;99.90;;;;;;4992053;28;20065;-67
2021/03/07 04:01:21;;;;;;;19.30;14.13;;;-2.70;99.90;;;;;;5003180;28;20077;-67
2021/03/07 04:03:49;;;;;;;22.70;14.82;;;-2.70;99.90;;;;;;4992761;28;20050;-67
2021/03/07 04:06:23;;;;;;;22.67;15.75;;;-2.80;99.90;;;;;;4990921;28;20056;-67
2021/03/07 04:08:54;;;;;;;22.27;15.35;;;-2.80;99.90;;;;;;4991693;28;20047;-67
2021/03/07 04:11:24;;;;;;;18.30;13.82;;;-2.80;99.90;;;;;;4991244;28;20042;-67
2021/03/07 04:14:05;;;;;;;19.45;13.40;;;-2.90;99.90;;;;;;4983379;28;20054;-67
2021/03/07 04:16:32;;;;;;;21.25;14.05;;;-2.90;99.90;;;;;;4990770;28;20053;-67
2021/03/07 04:19:01;;;;;;;21.17;14.15;;;-2.90;99.90;;;;;;4992265;28;20050;-67
2021/03/07 04:21:28;;;;;;;20.95;14.48;;;-3.00;99.90;;;;;;4991543;28;20053;-67
2021/03/07 04:23:55;;;;;;;18.83;14.43;;;-2.90;99.90;;;;;;4992609;28;20114;-67
2021/03/07 04:26:22;;;;;;;23.27;14.75;;;-3.00;99.90;;;;;;4990495;28;20042;-67
2021/03/07 04:28:49;;;;;;;20.55;14.35;;;-3.10;99.90;;;;;;4992521;28;20046;-67
2021/03/07 04:31:16;;;;;;;19.27;13.80;;;-3.00;99.90;;;;;;4990792;28;20092;-67
2021/03/07 04:33:44;;;;;;;21.75;14.65;;;-3.10;99.90;;;;;;4991576;28;20058;-67
2021/03/07 04:36:10;;;;;;;20.85;14.77;;;-3.00;99.90;;;;;;4992636;28;20378;-67
2021/03/07 04:38:37;;;;;;;20.95;15.23;;;-3.00;99.90;;;;;;4991073;28;20057;-67
2021/03/07 04:41:03;;;;;;;24.15;14.27;;;-3.10;99.90;;;;;;5005032;28;20053;-67
2021/03/07 04:43:48;;;;;;;20.55;14.73;;;-3.10;99.90;;;;;;4989988;28;20467;-67
2021/03/07 04:46:21;;;;;;;21.33;14.60;;;-3.10;99.90;;;;;;4990598;28;20420;-67
2021/03/07 04:48:49;;;;;;;20.73;14.40;;;-3.10;99.90;;;;;;4991767;28;20047;-67
2021/03/07 04:51:16;;;;;;;18.98;14.80;;;-3.10;99.90;;;;;;4990425;28;20496;-67
2021/03/07 04:53:42;;;;;;;23.00;14.45;;;-3.10;99.90;;;;;;4991679;28;20424;-67
2021/03/07 04:56:10;;;;;;;19.73;14.15;;;-3.10;99.90;;;;;;4991148;28;20461;-67
2021/03/07 04:58:36;;;;;;;19.25;14.90;;;-3.10;99.90;;;;;;4991468;28;20489;-67
2021/03/07 05:01:04;;;;;;;20.70;14.43;;;-3.10;99.90;;;;;;4988049;28;20055;-67
2021/03/07 05:03:32;;;;;;;22.08;15.35;;;-3.10;99.90;;;;;;4991317;28;20134;-67
2021/03/07 05:05:59;;;;;;;22.83;15.30;;;-3.10;99.90;;;;;;4990578;28;20046;-67
2021/03/07 05:08:26;;;;;;;22.83;14.98;;;-3.10;99.90;;;;;;4991404;28;20137;-67
2021/03/07 05:10:53;;;;;;;18.40;13.18;;;-3.10;99.90;;;;;;4992811;28;20070;-67
2021/03/07 05:13:20;;;;;;;20.60;14.07;;;-3.20;99.90;;;;;;4999645;28;20434;-67
2021/03/07 05:15:47;;;;;;;19.13;14.43;;;-3.20;99.90;;;;;;4995212;28;20056;-67
2021/03/07 05:18:14;;;;;;;20.38;14.15;;;-3.20;99.90;;;;;;4991229;28;20141;-67
2021/03/07 05:20:41;;;;;;;21.35;14.15;;;-3.20;99.90;;;;;;4984577;28;20074;-67
2021/03/07 05:23:07;;;;;;;18.30;13.18;;;-3.20;99.90;;;;;;4994292;28;20046;-67
2021/03/07 05:25:34;;;;;;;25.05;14.88;;;-3.20;99.90;;;;;;4998861;28;20117;-67
2021/03/07 05:28:00;;;;;;;19.92;14.38;;;-3.30;99.90;;;;;;4993393;28;20068;-67
2021/03/07 05:30:27;;;;;;;20.45;14.23;;;-3.30;99.90;;;;;;4990388;28;20524;-67
2021/03/07 05:32:54;;;;;;;19.77;13.60;;;-3.30;99.90;;;;;;4983293;28;20120;-67
2021/03/07 05:35:21;;;;;;;19.17;12.63;;;-3.30;99.90;;;;;;4994840;28;20149;-67
2021/03/07 05:37:48;;;;;;;20.60;14.05;;;-3.30;99.90;;;;;;4993923;28;20064;-67
2021/03/07 05:40:15;;;;;;;19.20;13.25;;;-3.40;99.90;;;;;;4994930;28;20149;-67
2021/03/07 05:42:42;;;;;;;17.73;12.70;;;-3.40;99.90;;;;;;4994020;28;20125;-67
2021/03/07 05:45:26;;;;;;;17.48;13.00;;;-3.50;99.90;;;;;;4992509;28;20050;-67
2021/03/07 05:47:53;;;;;;;18.95;12.77;;;-3.50;99.90;;;;;;4994341;28;20413;-67
2021/03/07 05:50:21;;;;;;;17.92;12.50;;;-3.50;99.90;;;;;;4993618;28;20054;-67
2021/03/07 05:52:49;;;;;;;17.90;12.25;;;-3.50;99.90;;;;;;4991941;28;20129;-67
2021/03/07 05:55:15;;;;;;;16.60;12.27;;;-3.50;99.90;;;;;;4993529;28;20146;-67
2021/03/07 05:57:46;;;;;;;18.08;11.57;;;-3.50;99.90;;;;;;4994618;28;20058;-67
2021/03/07 06:00:14;;;;;;;16.10;11.52;;;-3.50;99.90;;;;;;4989740;28;20096;-67
2021/03/07 06:02:41;;;;;;;15.65;11.45;;;-3.40;99.90;;;;;;4990212;28;20149;-67
2021/03/07 06:05:12;;;;;;;15.02;11.00;;;-3.30;99.90;;;;;;4994205;28;20069;-67
2021/03/07 06:07:39;;;;;;;16.48;11.85;;;-3.20;99.90;;;;;;4993884;28;20046;-67
2021/03/07 06:10:12;;;;;;;14.20;10.43;;;-3.20;99.90;;;;;;4994125;28;20133;-67
2021/03/07 06:12:39;;;;;;;14.75;10.52;;;-3.10;99.90;;;;;;4987458;28;20061;-67
2021/03/07 06:15:08;;;;;;;17.33;11.20;;;-3.00;99.90;;;;;;4994621;28;20050;-67
2021/03/07 06:17:43;;;;;;;18.27;12.43;;;-3.00;99.90;;;;;;4992650;28;20133;-66
2021/03/07 06:20:15;;;;;;;16.80;11.88;;;-3.00;99.90;;;;;;4992505;28;20048;-67
2021/03/07 06:23:04;;;;;;;17.50;12.82;;;-2.90;99.90;;;;;;4993872;28;20054;-67
2021/03/07 06:25:32;;;;;;;18.17;11.90;;;-2.80;99.90;;;;;;4997264;28;20046;-67
2021/03/07 06:27:59;;;;;;;15.93;10.88;;;-2.70;99.90;;;;;;4981756;28;20118;-67
2021/03/07 06:30:30;;;;;;;16.92;11.68;;;-2.70;99.90;;;;;;5002674;28;20077;-67
2021/03/07 06:32:59;;;;;;;16.55;11.05;;;-2.60;99.90;;;;;;4993623;28;20444;-67
2021/03/07 06:35:29;;;;;;;15.05;10.70;;;-2.60;99.90;;;;;;4981198;28;20573;-67
2021/03/07 06:37:59;;;;;;;14.48;11.25;;;-2.50;99.90;;;;;;4992651;28;20057;-67
2021/03/07 06:40:30;;;;;;;15.48;10.80;;;-2.40;99.90;;;;;;4987634;28;20137;-67
2021/03/07 06:42:59;;;;;;;12.05;9.95;;;-2.40;99.90;;;;;;4999357;28;20473;-65
2021/03/07 06:45:36;;;;;;;17.73;10.73;;;-2.40;99.90;;;;;;4998580;28;20081;-65
2021/03/07 06:48:03;;;;;;;13.85;10.15;;;-2.30;99.90;;;;;;4992336;28;20046;-65
2021/03/07 06:50:30;;;;;;;14.18;10.52;;;-2.30;99.90;;;;;;4995756;28;20137;-65
2021/03/07 06:52:59;;;;;;;13.60;10.20;;;-2.20;99.90;;;;;;4987445;28;20042;-65
2021/03/07 06:55:28;;;;;;;14.20;10.75;;;-2.20;99.90;;;;;;4989663;28;20050;-65
2021/03/07 06:57:55;;;;;;;12.82;10.70;;;-2.10;99.90;;;;;;4992360;28;20053;-65
2021/03/07 07:00:38;;;;;;;12.50;9.77;;;-2.00;99.90;;;;;;4992124;28;20054;-65
2021/03/07 07:03:12;;;;;;;13.18;9.90;;;-2.00;99.90;;;;;;4991916;28;20061;-65
2021/03/07 07:05:44;;;;;;;14.45;9.80;;;-2.00;99.90;;;;;;4985928;28;20397;-65
2021/03/07 07:08:12;;;;;;;14.52;10.02;;;-1.90;99.90;;;;;;4993522;28;20048;-65
2021/03/07 07:10:59;;;;;;;12.52;9.98;;;-1.80;99.90;;;;;;4993530;28;20054;-65
2021/03/07 07:13:27;;;;;;;16.58;11.10;;;-1.80;99.90;;;;;;4987283;28;20054;-65
2021/03/07 07:16:08;;;;;;;14.80;9.70;;;-1.70;99.90;;;;;;4993164;28;20054;-65
2021/03/07 07:18:37;;;;;;;13.38;10.02;;;-1.60;99.90;;;;;;4980998;28;20135;-65
2021/03/07 07:21:06;;;;;;;11.10;9.50;;;-1.60;99.90;;;;;;4992913;28;20061;-65
2021/03/07 07:23:33;;;;;;;15.27;10.98;;;-1.50;99.90;;;;;;4998864;28;20053;-65
2021/03/07 07:26:00;;;;;;;13.10;11.00;;;-1.40;99.90;;;;;;5002182;28;20057;-65
2021/03/07 07:28:27;;;;;;;15.98;12.68;;;-1.40;99.90;;;;;;4993344;28;20050;-65
2021/03/07 07:31:00;;;;;;;12.88;10.20;;;-1.30;99.90;;;;;;4996918;28;20050;-65
2021/03/07 07:33:50;;;;;;;13.70;9.60;;;-1.30;99.90;;;;;;4996449;28;20488;-65
2021/03/07 07:36:31;;;;;;;12.95;10.00;;;-1.20;99.90;;;;;;4985849;28;20053;-65
2021/03/07 07:39:00;;;;;;;11.10;9.87;;;-1.20;99.90;;;;;;4991301;28;20050;-65
2021/03/07 07:41:38;;;;;;;13.52;10.32;;;-1.00;99.90;;;;;;4996396;28;20054;-65
2021/03/07 07:44:06;;;;;;;;;;;-0.90;99.90;;;;;;4989449;28;20069;-65
2021/03/07 07:47:00;;;;;;;13.52;10.93;;;-0.90;99.90;;;;;;4992182;28;19957;-65
2021/03/07 07:49:40;;;;;;;12.85;10.75;;;-0.80;99.90;;;;;;4993036;28;20376;-65
2021/03/07 07:52:25;;;;;;;13.77;10.30;;;-0.70;99.90;;;;;;4988078;28;20046;-65
2021/03/07 07:54:58;;;;;;;13.95;10.68;;;-0.60;99.90;;;;;;4984099;28;20137;-65
2021/03/07 07:57:31;;;;;;;12.85;11.18;;;-0.50;99.90;;;;;;4995854;28;20081;-65
2021/03/07 08:00:03;;;;;;;14.23;11.10;;;-0.40;99.90;;;;;;4996919;28;20428;-65
2021/03/07 08:02:50;;;;;;;12.68;10.23;;;-0.30;99.90;;;;;;4995374;28;20038;-65
2021/03/07 08:05:20;;;;;;;13.55;10.25;;;-0.20;99.90;;;;;;4992111;28;20050;-65
2021/03/07 08:08:06;;;;;;;13.60;11.05;;;-0.20;99.90;;;;;;4992765;28;20077;-65
2021/03/07 08:10:41;;;;;;;12.90;10.27;;;-0.10;99.90;;;;;;4990207;28;20066;-65
2021/03/07 08:13:14;;;;;;;12.68;10.25;;;0.00;99.90;;;;;;4992754;28;20393;-65
2021/03/07 08:15:51;;;;;;;15.18;10.82;;;0.20;99.90;;;;;;4989823;28;20082;-66
2021/03/07 08:18:20;;;;;;;13.27;10.73;;;0.30;99.90;;;;;;4990849;28;20069;-65
2021/03/07 08:20:47;;;;;;;12.80;11.13;;;0.40;99.90;;;;;;4989728;28;20512;-67
2021/03/07 08:23:22;;;;;;;13.52;10.60;;;0.40;99.90;;;;;;4995175;28;20050;-66
2021/03/07 08:25:49;;;;;;;14.25;11.50;;;0.60;99.90;;;;;;4996433;28;20519;-65
2021/03/07 08:28:28;;;;;;;12.00;10.45;;;0.80;99.90;;;;;;4991787;28;20054;-65
2021/03/07 08:30:56;;;;;;;12.55;10.77;;;0.90;99.90;;;;;;4992188;28;20047;-65
2021/03/07 08:33:23;;;;;;;12.38;10.02;;;1.10;99.90;;;;;;4991393;28;20054;-66
2021/03/07 08:36:19;;;;;;;13.13;10.88;;;1.20;99.90;;;;;;4987799;28;20409;-65
2021/03/07 08:38:52;;;;;;;11.98;10.30;;;1.40;99.90;;;;;;4983870;28;20495;-65
2021/03/07 08:41:23;;;;;;;13.82;11.55;;;1.50;99.90;;;;;;4976876;28;20054;-66
2021/03/07 08:44:00;;;;;;;13.00;11.05;;;1.60;99.90;;;;;;4991788;28;20165;-66
2021/03/07 08:46:50;;;;;;;14.02;10.48;;;1.70;99.90;;;;;;4995185;28;20042;-66
2021/03/07 08:49:20;;;;;;;13.52;11.02;;;1.80;99.90;;;;;;4995816;28;20500;-66
2021/03/07 08:52:12;;;;;;;12.40;10.70;;;2.00;99.90;;;;;;4994782;28;20141;-65
2021/03/07 08:54:40;;;;;;;13.50;10.45;;;2.10;99.90;;;;;;4993094;28;20527;-65
2021/03/07 08:57:09;;;;;;;11.50;10.30;;;2.30;99.90;;;;;;4994587;28;20058;-65
2021/03/07 08:59:37;;;;;;;10.90;9.75;;;2.40;99.90;;;;;;4998098;28;20050;-66
2021/03/07 09:02:07;;;;;;;14.70;10.45;;;2.50;99.90;;;;;;4995792;28;20047;-66
2021/03/07 09:04:38;;;;;;;11.70;10.02;;;2.60;99.90;;;;;;4991832;28;20509;-65
2021/03/07 09:07:06;;;;;;;13.48;10.52;;;2.70;99.90;;;;;;4997626;28;20047;-66
2021/03/07 09:09:39;;;;;;;12.07;10.00;;;2.80;99.90;;;;;;4996853;28;20049;-66
2021/03/07 09:12:14;;;;;;;13.48;10.10;;;2.90;99.90;;;;;;4994572;28;20420;-66
2021/03/07 09:14:42;;;;;;;14.52;10.07;;;3.00;99.90;;;;;;4994284;28;20058;-66
2021/03/07 09:17:32;;;;;;;12.45;11.20;;;3.10;99.90;;;;;;4989174;28;20049;-67
2021/03/07 09:20:00;;;;;;;13.10;11.00;;;3.20;99.90;;;;;;4993122;28;20046;-65
2021/03/07 09:22:28;;;;;;;10.82;9.73;;;3.40;99.90;;;;;;4994018;28;20464;-65
2021/03/07 09:25:16;;;;;;;11.02;9.93;;;3.50;99.90;;;;;;4994026;28;20392;-66
2021/03/07 09:27:45;;;;;;;12.02;9.60;;;3.60;99.90;;;;;;4991374;28;20377;-65
2021/03/07 09:30:18;;;;;;;11.20;9.18;;;3.80;99.90;;;;;;4992425;28;20515;-65
2021/03/07 09:33:02;;;;;;;12.98;11.48;;;3.80;99.90;;;;;;4992061;28;20050;-65
2021/03/07 09:35:34;;;;;;;18.55;13.75;;;4.00;99.90;;;;;;4987905;28;20111;-65
2021/03/07 09:38:08;;;;;;;14.93;11.90;;;4.10;99.90;;;;;;4982381;28;20107;-66
2021/03/07 09:40:37;;;;;;;13.75;10.57;;;4.20;99.90;;;;;;4981829;28;20619;-65
2021/03/07 09:43:06;;;;;;;13.43;10.40;;;4.40;99.90;;;;;;4984396;28;20081;-65
2021/03/07 09:45:37;;;;;;;14.65;10.05;;;4.50;99.90;;;;;;4988384;28;20046;-65
2021/03/07 09:48:16;;;;;;;11.88;10.02;;;4.60;99.90;;;;;;4994383;28;20058;-67
2021/03/07 09:50:44;;;;;;;11.40;10.18;;;4.60;99.90;;;;;;4992079;28;20489;-66
2021/03/07 09:53:12;;;;;;;11.25;9.65;;;4.70;99.90;;;;;;4994488;28;20050;-65
2021/03/07 09:55:40;;;;;;;11.45;9.70;;;4.80;99.90;;;;;;4998003;28;20138;-66
2021/03/07 09:58:10;;;;;;;12.38;9.38;;;5.00;99.90;;;;;;4993645;28;20511;-66
2021/03/07 10:00:38;;;;;;;16.98;12.38;;;5.10;99.90;;;;;;4996962;28;20572;-66
2021/03/07 10:03:21;;;;;;;22.65;16.02;;;5.30;99.90;;;;;;4994807;28;20050;-65
2021/03/07 10:06:03;;;;;;;12.48;11.23;;;5.40;99.90;;;;;;4990784;28;20061;-65
2021/03/07 10:08:31;;;;;;;12.43;10.98;;;5.50;99.90;;;;;;4994884;28;20042;-66
2021/03/07 10:11:20;;;;;;;10.40;9.40;;;5.70;99.90;;;;;;4991696;28;20050;-65
2021/03/07 10:13:59;;;;;;;9.75;8.75;;;5.80;99.90;;;;;;4994909;28;20492;-65
2021/03/07 10:16:28;;;;;;;9.80;8.90;;;5.90;99.90;;;;;;4991454;28;20412;-66
2021/03/07 10:19:05;;;;;;;10.48;9.35;;;6.10;99.90;;;;;;4991892;28;20058;-66
2021/03/07 10:21:32;;;;;;;10.05;8.63;;;6.30;99.90;;;;;;4994185;28;20042;-66
2021/03/07 10:24:16;;;;;;;16.92;11.05;;;6.40;99.90;;;;;;4994054;28;20417;-67
2021/03/07 10:26:45;;;;;;;10.18;9.18;;;6.70;99.90;;;;;;4991480;28;20042;-67
2021/03/07 10:29:30;;;;;;;10.35;8.85;;;6.80;99.90;;;;;;4992872;28;20054;-66
2021/03/07 10:32:01;;;;;;;11.27;9.77;;;6.80;99.90;;;;;;4992708;28;20381;-64
2021/03/07 10:34:39;;;;;;;11.20;10.02;;;6.80;99.90;;;;;;4993989;28;20050;-65
2021/03/07 10:37:06;;;;;;;10.07;9.07;;;6.90;99.90;;;;;;4993636;28;20378;-66
2021/03/07 10:39:34;;;;;;;10.38;9.32;;;7.10;99.10;;;;;;4993881;28;20046;-66
2021/03/07 10:42:12;;;;;;;11.82;10.23;;;7.20;98.70;;;;;;4993904;28;20091;-65
2021/03/07 10:44:40;;;;;;;10.80;9.70;;;7.30;97.30;;;;;;4992263;28;20053;-65
2021/03/07 10:47:18;;;;;;;11.20;9.27;;;7.50;96.00;;;;;;4993731;28;20050;-65
2021/03/07 10:49:50;;;;;;;13.05;11.10;;;7.70;97.40;;;;;;4993840;28;20051;-66
2021/03/07 10:52:18;;;;;;;17.20;13.63;;;7.90;94.80;;;;;;4986565;28;20049;-65
2021/03/07 10:54:44;;;;;;;11.00;9.88;;;7.90;92.90;;;;;;4991785;28;20049;-65
2021/03/07 10:57:12;;;;;;;10.73;9.68;;;7.90;92.20;;;;;;4975482;28;20058;-66
2021/03/07 10:59:39;;;;;;;10.57;9.60;;;7.80;92.20;;;;;;4995023;28;20042;-66
2021/03/07 11:02:10;;;;;;;10.70;9.43;;;8.00;91.90;;;;;;4995309;28;20042;-66
2021/03/07 11:04:37;;;;;;;9.88;8.98;;;8.10;91.80;;;;;;4993549;28;20038;-66
2021/03/07 11:07:03;;;;;;;10.30;9.30;;;8.20;90.50;;;;;;4992804;28;20046;-66
2021/03/07 11:09:30;;;;;;;11.45;10.25;;;8.30;90.50;;;;;;4992670;28;20050;-66
2021/03/07 11:11:57;;;;;;;10.82;9.73;;;8.60;90.00;;;;;;4992978;28;20061;-66
2021/03/07 11:14:24;;;;;;;10.70;9.60;;;8.60;88.00;;;;;;4993026;28;20556;-66
2021/03/07 11:16:50;;;;;;;9.77;8.88;;;8.70;86.60;;;;;;4988822;28;20125;-66
2021/03/07 11:19:19;;;;;;;18.48;12.20;;;8.80;89.70;;;;;;4996718;28;20050;-65
2021/03/07 11:21:46;;;;;;;23.52;15.80;;;9.20;86.60;;;;;;4993015;28;20058;-65
2021/03/07 11:24:12;;;;;;;10.60;9.30;;;9.60;83.80;;;;;;4991634;28;20049;-66
2021/03/07 11:26:39;;;;;;;10.73;9.73;;;9.60;80.60;;;;;;4992981;28;20050;-65
2021/03/07 11:29:05;;;;;;;11.05;9.75;;;9.80;81.20;;;;;;4992209;28;20043;-66
2021/03/07 11:31:32;;;;;;;11.18;9.77;;;10.00;81.40;;;;;;4992724;28;20061;-65
2021/03/07 11:33:59;;;;;;;10.45;9.52;;;10.40;80.50;;;;;;4993060;28;20057;-66
2021/03/07 11:36:25;;;;;;;10.27;9.27;;;10.30;79.10;;;;;;4992758;28;20085;-66
2021/03/07 11:38:52;;;;;;;13.32;11.93;;;10.30;77.50;;;;;;4993122;28;20050;-66
2021/03/07 11:41:18;;;;;;;10.60;9.60;;;10.10;78.50;;;;;;4992348;28;20038;-66
2021/03/07 11:43:45;;;;;;;11.13;9.90;;;10.40;78.60;;;;;;4993132;28;20060;-66
2021/03/07 11:46:11;;;;;;;10.65;9.65;;;10.50;77.10;;;;;;4979750;28;20042;-66
2021/03/07 11:48:38;;;;;;;9.90;9.00;;;10.50;75.30;;;;;;4979688;28;20053;-66
2021/03/07 11:51:06;;;;;;;10.27;9.27;;;10.60;74.60;;;;;;4992308;28;20108;-66
2021/03/07 11:53:33;;;;;;;10.95;9.85;;;11.00;74.80;;;;;;4992068;28;20054;-66
2021/03/07 11:55:59;;;;;;;11.70;10.50;;;11.40;73.90;;;;;;4991963;28;20050;-66
2021/03/07 11:58:26;;;;;;;11.38;10.27;;;11.60;73.20;;;;;;4991015;28;20050;-66
2021/03/07 12:00:54;;;;;;;10.95;9.90;;;11.80;72.00;;;;;;4996583;28;20129;-66
2021/03/07 12:03:20;;;;;;;11.52;10.43;;;12.30;76.10;;;;;;4992768;28;20053;-66
2021/03/07 12:05:47;;;;;;;11.88;10.38;;;12.30;73.70;;;;;;4992259;28;20412;-66
2021/03/07 12:08:16;;;;;;;10.88;9.88;;;12.50;74.90;;;;;;4991258;28;20042;-66
2021/03/07 12:10:43;;;;;;;10.93;9.82;;;12.60;72.90;;;;;;4990868;28;20060;-67
2021/03/07 12:13:09;;;;;;;11.15;9.95;;;12.30;73.60;;;;;;4983047;28;20057;-66
2021/03/07 12:15:36;;;;;;;11.02;9.60;;;12.40;72.90;;;;;;4997759;28;20077;-66
2021/03/07 12:18:03;;;;;;;14.20;9.80;;;12.50;70.50;;;;;;4984473;28;20081;-65
2021/03/07 12:20:30;;;;;;;11.35;10.13;;;12.30;70.90;;;;;;5002242;28;20101;-66
2021/03/07 12:22:56;;;;;;;11.65;10.65;;;12.40;71.60;;;;;;4996961;28;20141;-66
2021/03/07 12:25:23;;;;;;;11.27;10.18;;;12.70;72.00;;;;;;4986807;28;20042;-66
2021/03/07 12:27:50;;;;;;;14.45;10.95;;;12.50;71.70;;;;;;4988506;28;20064;-66
2021/03/07 12:30:17;;;;;;;11.40;10.30;;;12.70;72.00;;;;;;4984954;28;20122;-66
2021/03/07 12:32:46;;;;;;;11.70;10.55;;;13.20;71.40;;;;;;4986125;28;20054;-66
2021/03/07 12:35:14;;;;;;;11.48;10.27;;;13.30;69.20;;;;;;4990697;28;20081;-66
2021/03/07 12:37:41;;;;;;;11.93;10.13;;;13.20;69.00;;;;;;4991827;28;20038;-66
2021/03/07 12:40:08;;;;;;;11.15;10.07;;;13.10;68.50;;;;;;4991444;28;20092;-66
2021/03/07 12:42:34;;;;;;;10.52;9.48;;;13.00;68.10;;;;;;4986380;28;20522;-66
2021/03/07 12:45:01;;;;;;;10.77;9.77;;;13.30;67.40;;;;;;4986151;28;20046;-66